Home   Weather   Vietnam   Hanoi   Past weeks
Flag for Vietnam

Past Weather in Hanoi, Vietnam — Yesterday and Last 2 Weeks

Currently: 82 °F. Clear. (Weather station: Ha Noi Airport, Vietnam). See more current weather

Past Weather in Hanoi — Graph

°F

Hanoi Temperature Yesterday

Maximum temperature yesterday: 95 °F (at 2:30 pm)
Minimum temperature yesterday: 79 °F (at 3:30 am)
Average temperature yesterday: 86 °F

High & Low Weather Summary for the Past Weeks

 TemperatureHumidityPressure
High97 °F (Jul 16, 1:30 pm)100% (Jul 14, 5:30 am)29.83 "Hg (Jul 14, 5:30 am)
Low77 °F (Jul 18, 3:00 pm)42% (Jul 16, 1:30 pm)29.42 "Hg (Jul 23, 5:00 pm)
Average86 °F78%29.61 "Hg
* Reported Jul 12 3:00 am — Jul 27 3:30 am, Hanoi. Weather by CustomWeather, © 2021

Note: Actual official high and low records may vary slightly from our data, if they occured in-between our weather recording intervals... More about our weather records

Hanoi Weather History for the Previous 24 Hours

Scroll right to see more
 ConditionsComfort  
Time TempWeatherWind HumidityBarometerVisibility
3:30 am
Tue, Jul 27
82 °FClear.3 mph94%29.47 "Hg10 mi
3:00 am82 °FPassing clouds.3 mph94%29.47 "HgN/A
2:30 am82 °FPassing clouds.5 mph94%29.47 "HgN/A
2:00 am82 °FClear.5 mph94%29.47 "Hg10 mi
1:30 am84 °FClear.5 mph89%29.50 "Hg10 mi
1:00 am84 °FClear.3 mph89%29.50 "Hg10 mi
12:30 am84 °FClear.5 mph89%29.50 "Hg10 mi
12:00 am84 °FClear.5 mph89%29.50 "Hg10 mi
11:30 pm
Mon, Jul 26
84 °FPassing clouds.5 mph89%29.50 "HgN/A
11:00 pm84 °FPassing clouds.6 mph89%29.53 "HgN/A
10:30 pm84 °FPassing clouds.6 mph89%29.53 "HgN/A
10:00 pm86 °FPassing clouds.8 mph84%29.53 "HgN/A
9:30 pm86 °FPassing clouds.7 mph84%29.50 "HgN/A
9:00 pm86 °FPassing clouds.7 mph84%29.50 "HgN/A
8:30 pm88 °FPassing clouds.8 mph79%29.50 "HgN/A
8:00 pm90 °FPassing clouds.6 mph59%29.47 "HgN/A
7:30 pm91 °FPassing clouds.6 mph56%29.47 "HgN/A
7:00 pm91 °FPassing clouds.7 mph52%29.45 "HgN/A
6:30 pm93 °FSunny.5 mph53%29.45 "Hg10 mi
6:00 pm93 °FSunny.5 mph47%29.45 "Hg10 mi
5:30 pm95 °FPassing clouds.5 mph44%29.45 "HgN/A
5:00 pm95 °FPassing clouds.3 mph47%29.42 "HgN/A
4:30 pm95 °FPassing clouds.6 mph47%29.42 "HgN/A
4:00 pm95 °FPassing clouds.5 mph47%29.45 "HgN/A
3:30 pm95 °FPassing clouds.3 mph47%29.45 "HgN/A
3:00 pm93 °FSunny.3 mph49%29.45 "Hg10 mi
2:30 pm95 °FSunny.2 mph50%29.47 "Hg10 mi
1:30 pm91 °FPassing clouds.6 mph56%29.50 "HgN/A
1:00 pm91 °FPassing clouds.6 mph67%29.50 "HgN/A
12:30 pm90 °FPassing clouds.7 mph75%29.53 "HgN/A
12:00 pm88 °FSunny.8 mph79%29.53 "Hg10 mi
11:30 am88 °FPassing clouds.7 mph79%29.53 "HgN/A
11:00 am88 °FPassing clouds.8 mph79%29.56 "HgN/A
10:30 am88 °FPassing clouds.6 mph84%29.56 "HgN/A
10:00 am88 °FPassing clouds.7 mph79%29.56 "HgN/A
9:30 am86 °FScattered clouds.5 mph84%29.56 "Hg6 mi
9:00 am84 °FPassing clouds.5 mph89%29.56 "Hg4 mi
8:30 am82 °FPassing clouds.3 mph89%29.56 "Hg4 mi
8:00 am82 °FPassing clouds.3 mph89%29.56 "Hg4 mi
7:30 am81 °FPassing clouds.2 mph94%29.56 "Hg4 mi
7:00 am81 °FClear.5 mph94%29.56 "Hg5 mi
6:30 am79 °FPassing clouds.5 mph100%29.53 "Hg5 mi
6:00 am79 °FSunny.6 mph100%29.53 "Hg10 mi
5:30 am79 °FSunny.5 mph100%29.53 "Hg10 mi
5:00 am79 °FPassing clouds.6 mph94%29.53 "HgN/A
Weather by CustomWeather, © 2021

See weather overview